sensor_id;sensor_type;location;lat;lon;timestamp;temperature;humidity
38118;DHT22;23928;47.562;7.508;2022-08-01T00:00:10;21.20;99.90
38118;DHT22;23928;47.562;7.508;2022-08-01T00:02:36;21.30;99.90
38118;DHT22;23928;47.562;7.508;2022-08-01T00:05:07;21.40;99.90
38118;DHT22;23928;47.562;7.508;2022-08-01T00:07:34;21.20;99.90
38118;DHT22;23928;47.562;7.508;2022-08-01T00:09:59;21.00;99.90
38118;DHT22;23928;47.562;7.508;2022-08-01T00:12:25;21.00;99.90
38118;DHT22;23928;47.562;7.508;2022-08-01T00:14:51;21.20;99.90
38118;DHT22;23928;47.562;7.508;2022-08-01T00:17:16;21.20;99.90
38118;DHT22;23928;47.562;7.508;2022-08-01T00:19:42;21.00;99.90
38118;DHT22;23928;47.562;7.508;2022-08-01T00:22:08;20.60;99.90
38118;DHT22;23928;47.562;7.508;2022-08-01T00:24:33;20.80;99.90
38118;DHT22;23928;47.562;7.508;2022-08-01T00:26:59;20.90;99.90
38118;DHT22;23928;47.562;7.508;2022-08-01T00:29:25;20.80;99.90
38118;DHT22;23928;47.562;7.508;2022-08-01T00:31:50;20.40;99.90
38118;DHT22;23928;47.562;7.508;2022-08-01T00:34:16;20.60;99.90
38118;DHT22;23928;47.562;7.508;2022-08-01T00:36:41;20.50;99.90
38118;DHT22;23928;47.562;7.508;2022-08-01T00:39:07;20.50;99.90
38118;DHT22;23928;47.562;7.508;2022-08-01T00:41:33;20.60;99.90
38118;DHT22;23928;47.562;7.508;2022-08-01T00:44:01;20.40;99.90
38118;DHT22;23928;47.562;7.508;2022-08-01T00:46:27;20.10;99.90
38118;DHT22;23928;47.562;7.508;2022-08-01T00:48:52;20.20;99.90
38118;DHT22;23928;47.562;7.508;2022-08-01T00:51:18;20.50;99.90
38118;DHT22;23928;47.562;7.508;2022-08-01T00:53:44;20.60;99.90
38118;DHT22;23928;47.562;7.508;2022-08-01T00:56:10;20.30;99.90
38118;DHT22;23928;47.562;7.508;2022-08-01T00:58:37;20.30;99.90
38118;DHT22;23928;47.562;7.508;2022-08-01T01:01:02;20.50;99.90
38118;DHT22;23928;47.562;7.508;2022-08-01T01:03:28;20.40;99.90
38118;DHT22;23928;47.562;7.508;2022-08-01T01:11:29;20.00;99.90
38118;DHT22;23928;47.562;7.508;2022-08-01T01:14:06;20.00;99.90
38118;DHT22;23928;47.562;7.508;2022-08-01T01:16:34;20.10;99.90
38118;DHT22;23928;47.562;7.508;2022-08-01T01:19:03;20.00;99.90
38118;DHT22;23928;47.562;7.508;2022-08-01T01:26:57;19.90;99.90
38118;DHT22;23928;47.562;7.508;2022-08-01T01:29:28;20.10;99.90
38118;DHT22;23928;47.562;7.508;2022-08-01T01:32:09;20.30;99.90
38118;DHT22;23928;47.562;7.508;2022-08-01T01:34:41;20.00;99.90
38118;DHT22;23928;47.562;7.508;2022-08-01T01:37:14;19.90;99.90
38118;DHT22;23928;47.562;7.508;2022-08-01T01:39:41;19.80;99.90
38118;DHT22;23928;47.562;7.508;2022-08-01T01:42:08;19.90;99.90
38118;DHT22;23928;47.562;7.508;2022-08-01T01:44:34;20.10;99.90
38118;DHT22;23928;47.562;7.508;2022-08-01T01:47:01;20.20;99.90
38118;DHT22;23928;47.562;7.508;2022-08-01T01:49:28;20.30;99.90
38118;DHT22;23928;47.562;7.508;2022-08-01T01:51:56;20.30;99.90
38118;DHT22;23928;47.562;7.508;2022-08-01T01:54:24;20.30;99.90
38118;DHT22;23928;47.562;7.508;2022-08-01T01:56:51;20.40;99.90
38118;DHT22;23928;47.562;7.508;2022-08-01T01:59:21;20.40;99.90
38118;DHT22;23928;47.562;7.508;2022-08-01T02:01:51;20.20;99.90
38118;DHT22;23928;47.562;7.508;2022-08-01T02:04:18;20.20;99.90
38118;DHT22;23928;47.562;7.508;2022-08-01T02:06:46;19.80;99.90
38118;DHT22;23928;47.562;7.508;2022-08-01T02:09:18;19.60;99.90
38118;DHT22;23928;47.562;7.508;2022-08-01T02:11:46;19.50;99.90
38118;DHT22;23928;47.562;7.508;2022-08-01T02:14:13;19.40;99.90
38118;DHT22;23928;47.562;7.508;2022-08-01T02:16:41;19.30;99.90
38118;DHT22;23928;47.562;7.508;2022-08-01T02:19:08;19.40;99.90
38118;DHT22;23928;47.562;7.508;2022-08-01T02:21:48;19.50;99.90
38118;DHT22;23928;47.562;7.508;2022-08-01T02:27:14;19.90;99.90
38118;DHT22;23928;47.562;7.508;2022-08-01T02:29:51;19.60;99.90
38118;DHT22;23928;47.562;7.508;2022-08-01T02:32:25;19.20;99.90
38118;DHT22;23928;47.562;7.508;2022-08-01T02:34:53;19.10;99.90
38118;DHT22;23928;47.562;7.508;2022-08-01T02:37:22;19.00;99.90
38118;DHT22;23928;47.562;7.508;2022-08-01T02:39:51;18.80;99.90
38118;DHT22;23928;47.562;7.508;2022-08-01T02:42:19;18.70;99.90
38118;DHT22;23928;47.562;7.508;2022-08-01T02:44:46;19.10;99.90
38118;DHT22;23928;47.562;7.508;2022-08-01T02:47:14;19.10;99.90
38118;DHT22;23928;47.562;7.508;2022-08-01T02:49:45;18.70;99.90
38118;DHT22;23928;47.562;7.508;2022-08-01T02:52:14;18.50;99.90
38118;DHT22;23928;47.562;7.508;2022-08-01T02:54:42;18.60;99.90
38118;DHT22;23928;47.562;7.508;2022-08-01T02:57:09;18.50;99.90
38118;DHT22;23928;47.562;7.508;2022-08-01T02:59:37;18.20;99.90
38118;DHT22;23928;47.562;7.508;2022-08-01T03:02:04;18.20;99.90
38118;DHT22;23928;47.562;7.508;2022-08-01T03:04:33;18.30;99.90
38118;DHT22;23928;47.562;7.508;2022-08-01T03:07:02;18.40;99.90
38118;DHT22;23928;47.562;7.508;2022-08-01T03:09:29;18.20;99.90
38118;DHT22;23928;47.562;7.508;2022-08-01T03:11:58;18.10;99.90
38118;DHT22;23928;47.562;7.508;2022-08-01T03:14:25;17.90;99.90
38118;DHT22;23928;47.562;7.508;2022-08-01T03:16:52;17.80;99.90
38118;DHT22;23928;47.562;7.508;2022-08-01T03:19:19;18.30;99.90
38118;DHT22;23928;47.562;7.508;2022-08-01T03:21:47;18.80;99.90
38118;DHT22;23928;47.562;7.508;2022-08-01T03:24:14;19.00;99.90
38118;DHT22;23928;47.562;7.508;2022-08-01T03:26:41;19.20;99.90
38118;DHT22;23928;47.562;7.508;2022-08-01T03:29:17;18.80;99.90
38118;DHT22;23928;47.562;7.508;2022-08-01T03:31:44;18.50;99.90
38118;DHT22;23928;47.562;7.508;2022-08-01T03:34:11;18.30;99.90
38118;DHT22;23928;47.562;7.508;2022-08-01T03:36:59;18.40;99.90
38118;DHT22;23928;47.562;7.508;2022-08-01T03:39:31;18.50;99.90
38118;DHT22;23928;47.562;7.508;2022-08-01T04:37:23;17.20;99.90
38118;DHT22;23928;47.562;7.508;2022-08-01T04:39:52;17.40;99.90
38118;DHT22;23928;47.562;7.508;2022-08-01T04:42:19;17.40;99.90
38118;DHT22;23928;47.562;7.508;2022-08-01T04:44:45;17.40;99.90
38118;DHT22;23928;47.562;7.508;2022-08-01T04:47:11;17.40;99.90
38118;DHT22;23928;47.562;7.508;2022-08-01T04:49:39;17.40;99.90
38118;DHT22;23928;47.562;7.508;2022-08-01T04:52:05;17.60;99.90
38118;DHT22;23928;47.562;7.508;2022-08-01T04:54:33;17.70;99.90
38118;DHT22;23928;47.562;7.508;2022-08-01T04:57:03;17.90;99.90
38118;DHT22;23928;47.562;7.508;2022-08-01T04:59:30;18.20;99.90
38118;DHT22;23928;47.562;7.508;2022-08-01T05:02:06;18.30;99.90
38118;DHT22;23928;47.562;7.508;2022-08-01T05:04:33;18.30;99.90
38118;DHT22;23928;47.562;7.508;2022-08-01T05:06:58;18.20;99.90
38118;DHT22;23928;47.562;7.508;2022-08-01T05:09:25;18.20;99.90
38118;DHT22;23928;47.562;7.508;2022-08-01T05:11:50;18.10;99.90
38118;DHT22;23928;47.562;7.508;2022-08-01T05:14:16;18.10;99.90
38118;DHT22;23928;47.562;7.508;2022-08-01T05:16:42;18.20;99.90
38118;DHT22;23928;47.562;7.508;2022-08-01T05:19:08;18.50;99.90
38118;DHT22;23928;47.562;7.508;2022-08-01T05:21:34;18.60;99.90
38118;DHT22;23928;47.562;7.508;2022-08-01T05:24:00;18.70;99.90
38118;DHT22;23928;47.562;7.508;2022-08-01T05:26:25;18.90;99.90
38118;DHT22;23928;47.562;7.508;2022-08-01T05:28:51;19.00;99.90
38118;DHT22;23928;47.562;7.508;2022-08-01T05:31:17;18.90;99.90
38118;DHT22;23928;47.562;7.508;2022-08-01T05:33:42;19.20;99.90
38118;DHT22;23928;47.562;7.508;2022-08-01T05:36:08;19.10;99.90
38118;DHT22;23928;47.562;7.508;2022-08-01T05:38:34;18.90;99.90
38118;DHT22;23928;47.562;7.508;2022-08-01T05:40:59;19.10;99.90
38118;DHT22;23928;47.562;7.508;2022-08-01T05:43:25;19.20;99.90
38118;DHT22;23928;47.562;7.508;2022-08-01T05:45:51;19.50;99.90
38118;DHT22;23928;47.562;7.508;2022-08-01T05:48:17;19.50;99.90
38118;DHT22;23928;47.562;7.508;2022-08-01T05:50:42;19.50;99.90
38118;DHT22;23928;47.562;7.508;2022-08-01T05:53:08;19.60;99.90
38118;DHT22;23928;47.562;7.508;2022-08-01T05:55:35;19.40;99.90
38118;DHT22;23928;47.562;7.508;2022-08-01T05:58:01;19.50;99.90
38118;DHT22;23928;47.562;7.508;2022-08-01T06:00:26;19.70;99.90
38118;DHT22;23928;47.562;7.508;2022-08-01T06:02:52;19.80;99.90
38118;DHT22;23928;47.562;7.508;2022-08-01T06:05:17;19.90;99.90
38118;DHT22;23928;47.562;7.508;2022-08-01T06:07:43;19.70;99.90
38118;DHT22;23928;47.562;7.508;2022-08-01T06:10:09;19.80;99.90
38118;DHT22;23928;47.562;7.508;2022-08-01T06:12:35;20.10;99.90
38118;DHT22;23928;47.562;7.508;2022-08-01T06:15:02;20.10;99.90
38118;DHT22;23928;47.562;7.508;2022-08-01T06:17:28;20.30;99.90
38118;DHT22;23928;47.562;7.508;2022-08-01T06:19:53;20.30;99.90
38118;DHT22;23928;47.562;7.508;2022-08-01T06:22:19;20.50;99.90
38118;DHT22;23928;47.562;7.508;2022-08-01T06:24:45;20.60;99.90
38118;DHT22;23928;47.562;7.508;2022-08-01T06:27:10;20.50;99.90
38118;DHT22;23928;47.562;7.508;2022-08-01T06:29:36;20.70;99.90
38118;DHT22;23928;47.562;7.508;2022-08-01T06:32:01;20.80;99.90
38118;DHT22;23928;47.562;7.508;2022-08-01T06:34:27;20.90;99.90
38118;DHT22;23928;47.562;7.508;2022-08-01T06:36:52;20.90;99.90
38118;DHT22;23928;47.562;7.508;2022-08-01T06:39:18;21.00;99.90
38118;DHT22;23928;47.562;7.508;2022-08-01T06:41:44;21.00;99.90
38118;DHT22;23928;47.562;7.508;2022-08-01T06:44:14;21.10;99.90
38118;DHT22;23928;47.562;7.508;2022-08-01T06:46:40;21.10;99.90
38118;DHT22;23928;47.562;7.508;2022-08-01T06:49:05;21.30;99.90
38118;DHT22;23928;47.562;7.508;2022-08-01T06:51:31;21.30;99.90
38118;DHT22;23928;47.562;7.508;2022-08-01T06:53:57;21.40;99.90
38118;DHT22;23928;47.562;7.508;2022-08-01T06:56:22;21.50;99.90
38118;DHT22;23928;47.562;7.508;2022-08-01T06:58:49;21.50;99.90
38118;DHT22;23928;47.562;7.508;2022-08-01T07:01:15;21.70;99.90
38118;DHT22;23928;47.562;7.508;2022-08-01T07:03:41;21.80;99.90
38118;DHT22;23928;47.562;7.508;2022-08-01T07:06:07;22.00;99.90
38118;DHT22;23928;47.562;7.508;2022-08-01T07:08:33;22.10;99.90
38118;DHT22;23928;47.562;7.508;2022-08-01T07:10:59;22.10;99.90
38118;DHT22;23928;47.562;7.508;2022-08-01T07:13:28;22.30;99.90
38118;DHT22;23928;47.562;7.508;2022-08-01T07:15:56;22.40;99.90
38118;DHT22;23928;47.562;7.508;2022-08-01T07:18:22;22.40;99.90
38118;DHT22;23928;47.562;7.508;2022-08-01T07:20:49;22.60;99.90
38118;DHT22;23928;47.562;7.508;2022-08-01T07:23:15;22.70;99.90
38118;DHT22;23928;47.562;7.508;2022-08-01T07:25:41;22.80;99.90
38118;DHT22;23928;47.562;7.508;2022-08-01T07:28:07;22.80;99.90
38118;DHT22;23928;47.562;7.508;2022-08-01T07:30:33;22.90;99.90
38118;DHT22;23928;47.562;7.508;2022-08-01T07:32:59;23.10;99.90
38118;DHT22;23928;47.562;7.508;2022-08-01T07:35:25;23.10;99.90
38118;DHT22;23928;47.562;7.508;2022-08-01T07:37:51;23.20;99.90
38118;DHT22;23928;47.562;7.508;2022-08-01T07:40:19;23.30;99.90
38118;DHT22;23928;47.562;7.508;2022-08-01T07:42:45;23.30;99.90
38118;DHT22;23928;47.562;7.508;2022-08-01T07:45:11;23.50;99.90
38118;DHT22;23928;47.562;7.508;2022-08-01T07:47:37;23.60;99.90
38118;DHT22;23928;47.562;7.508;2022-08-01T07:50:04;23.60;99.90
38118;DHT22;23928;47.562;7.508;2022-08-01T07:52:30;23.50;99.90
38118;DHT22;23928;47.562;7.508;2022-08-01T07:54:57;23.80;99.90
38118;DHT22;23928;47.562;7.508;2022-08-01T07:57:24;23.90;99.90
38118;DHT22;23928;47.562;7.508;2022-08-01T07:59:50;23.80;99.90
38118;DHT22;23928;47.562;7.508;2022-08-01T08:02:16;23.70;99.90
38118;DHT22;23928;47.562;7.508;2022-08-01T08:04:41;23.90;99.90
38118;DHT22;23928;47.562;7.508;2022-08-01T08:07:07;24.10;99.90
38118;DHT22;23928;47.562;7.508;2022-08-01T08:09:33;24.30;99.90
38118;DHT22;23928;47.562;7.508;2022-08-01T08:11:58;24.30;99.90
38118;DHT22;23928;47.562;7.508;2022-08-01T08:14:24;24.20;99.90
38118;DHT22;23928;47.562;7.508;2022-08-01T08:16:50;24.20;99.90
38118;DHT22;23928;47.562;7.508;2022-08-01T08:19:16;24.30;99.90
38118;DHT22;23928;47.562;7.508;2022-08-01T08:21:42;24.30;99.90
38118;DHT22;23928;47.562;7.508;2022-08-01T08:24:09;24.50;99.90
38118;DHT22;23928;47.562;7.508;2022-08-01T08:26:53;24.60;99.90
38118;DHT22;23928;47.562;7.508;2022-08-01T08:29:19;24.80;99.90
38118;DHT22;23928;47.562;7.508;2022-08-01T08:31:45;25.10;99.90
38118;DHT22;23928;47.562;7.508;2022-08-01T08:34:11;25.30;99.90
38118;DHT22;23928;47.562;7.508;2022-08-01T08:36:37;25.20;99.90
38118;DHT22;23928;47.562;7.508;2022-08-01T08:39:03;25.10;99.90
38118;DHT22;23928;47.562;7.508;2022-08-01T08:41:30;25.10;99.90
38118;DHT22;23928;47.562;7.508;2022-08-01T08:43:56;25.20;99.90
38118;DHT22;23928;47.562;7.508;2022-08-01T08:46:25;25.50;99.90
38118;DHT22;23928;47.562;7.508;2022-08-01T08:48:52;25.70;99.90
38118;DHT22;23928;47.562;7.508;2022-08-01T08:51:18;25.80;99.90
38118;DHT22;23928;47.562;7.508;2022-08-01T08:53:46;25.60;99.90
38118;DHT22;23928;47.562;7.508;2022-08-01T08:56:13;25.50;99.90
38118;DHT22;23928;47.562;7.508;2022-08-01T08:58:45;25.50;99.90
38118;DHT22;23928;47.562;7.508;2022-08-01T09:01:10;25.70;99.90
38118;DHT22;23928;47.562;7.508;2022-08-01T09:03:38;25.70;99.90
38118;DHT22;23928;47.562;7.508;2022-08-01T09:06:04;25.90;99.90
38118;DHT22;23928;47.562;7.508;2022-08-01T09:08:29;25.90;99.90
38118;DHT22;23928;47.562;7.508;2022-08-01T09:10:55;25.70;99.90
38118;DHT22;23928;47.562;7.508;2022-08-01T09:13:21;25.70;99.90
38118;DHT22;23928;47.562;7.508;2022-08-01T09:18:39;25.90;99.90
38118;DHT22;23928;47.562;7.508;2022-08-01T09:21:13;26.10;99.90
38118;DHT22;23928;47.562;7.508;2022-08-01T09:26:32;26.10;99.90
38118;DHT22;23928;47.562;7.508;2022-08-01T09:28:59;26.30;99.90
38118;DHT22;23928;47.562;7.508;2022-08-01T09:31:26;26.40;99.90
38118;DHT22;23928;47.562;7.508;2022-08-01T09:33:55;26.40;99.90
38118;DHT22;23928;47.562;7.508;2022-08-01T09:36:22;26.50;99.90
38118;DHT22;23928;47.562;7.508;2022-08-01T09:38:49;26.90;99.90
38118;DHT22;23928;47.562;7.508;2022-08-01T09:41:14;26.70;99.90
38118;DHT22;23928;47.562;7.508;2022-08-01T09:43:48;26.60;99.90
38118;DHT22;23928;47.562;7.508;2022-08-01T09:46:15;26.70;99.90
38118;DHT22;23928;47.562;7.508;2022-08-01T09:49:03;27.00;99.90
38118;DHT22;23928;47.562;7.508;2022-08-01T09:51:34;27.20;99.90
38118;DHT22;23928;47.562;7.508;2022-08-01T09:54:02;27.10;99.90
38118;DHT22;23928;47.562;7.508;2022-08-01T09:56:39;27.00;99.90
38118;DHT22;23928;47.562;7.508;2022-08-01T09:59:06;26.90;99.90
38118;DHT22;23928;47.562;7.508;2022-08-01T10:01:43;27.20;99.90
38118;DHT22;23928;47.562;7.508;2022-08-01T10:04:15;27.30;99.90
38118;DHT22;23928;47.562;7.508;2022-08-01T10:06:42;27.20;99.90
38118;DHT22;23928;47.562;7.508;2022-08-01T10:09:09;27.10;99.90
38118;DHT22;23928;47.562;7.508;2022-08-01T10:11:36;27.30;99.90
38118;DHT22;23928;47.562;7.508;2022-08-01T10:14:05;27.20;99.90
38118;DHT22;23928;47.562;7.508;2022-08-01T10:16:35;27.30;99.90
38118;DHT22;23928;47.562;7.508;2022-08-01T10:19:03;27.20;99.90
38118;DHT22;23928;47.562;7.508;2022-08-01T10:21:32;27.70;99.90
38118;DHT22;23928;47.562;7.508;2022-08-01T10:24:01;27.90;99.90
38118;DHT22;23928;47.562;7.508;2022-08-01T10:26:30;28.00;99.90
38118;DHT22;23928;47.562;7.508;2022-08-01T10:28:57;27.80;99.90
38118;DHT22;23928;47.562;7.508;2022-08-01T10:31:23;27.70;99.90
38118;DHT22;23928;47.562;7.508;2022-08-01T10:33:50;27.70;99.90
38118;DHT22;23928;47.562;7.508;2022-08-01T10:36:19;28.00;99.90
38118;DHT22;23928;47.562;7.508;2022-08-01T10:38:46;28.00;99.90
38118;DHT22;23928;47.562;7.508;2022-08-01T10:41:12;28.10;99.90
38118;DHT22;23928;47.562;7.508;2022-08-01T10:43:42;28.30;99.90
38118;DHT22;23928;47.562;7.508;2022-08-01T10:46:08;28.70;99.90
38118;DHT22;23928;47.562;7.508;2022-08-01T10:49:01;28.60;99.90
38118;DHT22;23928;47.562;7.508;2022-08-01T10:51:28;28.00;99.90
38118;DHT22;23928;47.562;7.508;2022-08-01T10:53:54;28.20;99.90
38118;DHT22;23928;47.562;7.508;2022-08-01T10:56:23;28.40;99.90
38118;DHT22;23928;47.562;7.508;2022-08-01T10:58:51;28.80;99.90
38118;DHT22;23928;47.562;7.508;2022-08-01T11:01:23;28.90;99.90
38118;DHT22;23928;47.562;7.508;2022-08-01T11:06:26;28.70;99.90
38118;DHT22;23928;47.562;7.508;2022-08-01T11:08:54;28.30;99.90
38118;DHT22;23928;47.562;7.508;2022-08-01T11:11:20;28.30;99.90
38118;DHT22;23928;47.562;7.508;2022-08-01T11:16:28;28.40;99.90
38118;DHT22;23928;47.562;7.508;2022-08-01T11:18:54;29.00;99.90
38118;DHT22;23928;47.562;7.508;2022-08-01T11:21:20;29.40;99.90
38118;DHT22;23928;47.562;7.508;2022-08-01T11:23:50;28.60;99.90
38118;DHT22;23928;47.562;7.508;2022-08-01T11:26:19;29.00;99.90
38118;DHT22;23928;47.562;7.508;2022-08-01T11:29:10;29.30;99.90
38118;DHT22;23928;47.562;7.508;2022-08-01T11:31:33;29.40;99.90
38118;DHT22;23928;47.562;7.508;2022-08-01T11:33:59;29.80;99.90
38118;DHT22;23928;47.562;7.508;2022-08-01T11:36:26;29.70;99.90
38118;DHT22;23928;47.562;7.508;2022-08-01T11:41:29;29.30;99.90
38118;DHT22;23928;47.562;7.508;2022-08-01T11:52:07;29.30;99.90
38118;DHT22;23928;47.562;7.508;2022-08-01T11:54:45;29.40;99.90
38118;DHT22;23928;47.562;7.508;2022-08-01T11:59:41;29.50;99.90
38118;DHT22;23928;47.562;7.508;2022-08-01T12:02:30;29.60;99.90
38118;DHT22;23928;47.562;7.508;2022-08-01T12:04:59;29.70;99.90
38118;DHT22;23928;47.562;7.508;2022-08-01T12:07:27;29.60;99.90
38118;DHT22;23928;47.562;7.508;2022-08-01T12:10:04;29.70;99.90
38118;DHT22;23928;47.562;7.508;2022-08-01T12:12:31;29.70;99.90
38118;DHT22;23928;47.562;7.508;2022-08-01T12:14:59;30.00;99.90
38118;DHT22;23928;47.562;7.508;2022-08-01T12:17:38;30.20;99.90
38118;DHT22;23928;47.562;7.508;2022-08-01T12:20:07;30.50;99.90
38118;DHT22;23928;47.562;7.508;2022-08-01T12:22:33;30.10;99.90
38118;DHT22;23928;47.562;7.508;2022-08-01T12:25:25;29.90;99.90
38118;DHT22;23928;47.562;7.508;2022-08-01T12:27:51;30.10;99.90
38118;DHT22;23928;47.562;7.508;2022-08-01T12:30:19;30.50;99.90
38118;DHT22;23928;47.562;7.508;2022-08-01T12:32:49;29.90;99.70
38118;DHT22;23928;47.562;7.508;2022-08-01T12:35:17;30.00;99.50
38118;DHT22;23928;47.562;7.508;2022-08-01T12:37:45;30.10;99.90
38118;DHT22;23928;47.562;7.508;2022-08-01T12:42:48;30.20;99.90
38118;DHT22;23928;47.562;7.508;2022-08-01T12:45:17;30.60;99.60
38118;DHT22;23928;47.562;7.508;2022-08-01T12:47:43;30.30;98.60
38118;DHT22;23928;47.562;7.508;2022-08-01T12:50:15;30.30;99.40
38118;DHT22;23928;47.562;7.508;2022-08-01T12:52:41;30.30;98.00
38118;DHT22;23928;47.562;7.508;2022-08-01T12:55:10;30.10;99.10
38118;DHT22;23928;47.562;7.508;2022-08-01T12:57:37;29.90;98.60
38118;DHT22;23928;47.562;7.508;2022-08-01T13:02:35;30.40;99.20
38118;DHT22;23928;47.562;7.508;2022-08-01T13:05:02;30.10;99.20
38118;DHT22;23928;47.562;7.508;2022-08-01T13:07:54;30.30;97.50
38118;DHT22;23928;47.562;7.508;2022-08-01T13:10:30;30.50;97.80
38118;DHT22;23928;47.562;7.508;2022-08-01T13:12:58;30.30;98.40
38118;DHT22;23928;47.562;7.508;2022-08-01T13:15:32;30.20;97.50
38118;DHT22;23928;47.562;7.508;2022-08-01T13:18:02;30.20;97.60
38118;DHT22;23928;47.562;7.508;2022-08-01T13:20:46;30.30;98.40
38118;DHT22;23928;47.562;7.508;2022-08-01T13:23:18;30.30;97.60
38118;DHT22;23928;47.562;7.508;2022-08-01T13:25:55;30.70;97.90
38118;DHT22;23928;47.562;7.508;2022-08-01T13:28:22;30.80;99.00
38118;DHT22;23928;47.562;7.508;2022-08-01T13:31:03;30.80;96.20
38118;DHT22;23928;47.562;7.508;2022-08-01T13:33:47;30.60;97.80
38118;DHT22;23928;47.562;7.508;2022-08-01T13:36:14;30.80;97.80
38118;DHT22;23928;47.562;7.508;2022-08-01T13:38:42;30.70;98.60
38118;DHT22;23928;47.562;7.508;2022-08-01T13:41:26;30.60;96.70
38118;DHT22;23928;47.562;7.508;2022-08-01T13:43:52;31.00;96.90
38118;DHT22;23928;47.562;7.508;2022-08-01T13:46:18;31.00;97.00
38118;DHT22;23928;47.562;7.508;2022-08-01T13:48:44;31.20;97.00
38118;DHT22;23928;47.562;7.508;2022-08-01T13:51:10;30.70;95.20
38118;DHT22;23928;47.562;7.508;2022-08-01T13:53:36;30.80;95.60
38118;DHT22;23928;47.562;7.508;2022-08-01T13:56:02;30.80;95.20
38118;DHT22;23928;47.562;7.508;2022-08-01T13:58:27;31.40;96.80
38118;DHT22;23928;47.562;7.508;2022-08-01T14:00:54;31.70;96.60
38118;DHT22;23928;47.562;7.508;2022-08-01T14:03:21;31.80;96.40
38118;DHT22;23928;47.562;7.508;2022-08-01T14:05:46;31.30;96.20
38118;DHT22;23928;47.562;7.508;2022-08-01T14:08:14;31.00;96.10
38118;DHT22;23928;47.562;7.508;2022-08-01T14:10:40;30.30;96.20
38118;DHT22;23928;47.562;7.508;2022-08-01T14:13:05;30.60;97.50
38118;DHT22;23928;47.562;7.508;2022-08-01T14:15:31;31.20;97.10
38118;DHT22;23928;47.562;7.508;2022-08-01T14:17:58;31.60;98.10
38118;DHT22;23928;47.562;7.508;2022-08-01T14:20:24;32.00;96.00
38118;DHT22;23928;47.562;7.508;2022-08-01T14:22:49;32.00;97.40
38118;DHT22;23928;47.562;7.508;2022-08-01T14:25:15;31.30;96.20
38118;DHT22;23928;47.562;7.508;2022-08-01T14:27:43;30.80;96.90
38118;DHT22;23928;47.562;7.508;2022-08-01T14:30:09;31.50;97.10
38118;DHT22;23928;47.562;7.508;2022-08-01T14:32:35;31.10;96.90
38118;DHT22;23928;47.562;7.508;2022-08-01T14:35:02;31.10;98.50
38118;DHT22;23928;47.562;7.508;2022-08-01T14:37:28;31.30;97.20
38118;DHT22;23928;47.562;7.508;2022-08-01T14:39:55;31.10;97.50
38118;DHT22;23928;47.562;7.508;2022-08-01T14:42:20;31.00;96.80
38118;DHT22;23928;47.562;7.508;2022-08-01T14:44:46;31.10;97.00
38118;DHT22;23928;47.562;7.508;2022-08-01T14:47:12;31.10;97.10
38118;DHT22;23928;47.562;7.508;2022-08-01T14:49:37;31.40;97.70
38118;DHT22;23928;47.562;7.508;2022-08-01T14:52:03;30.90;95.90
38118;DHT22;23928;47.562;7.508;2022-08-01T14:54:29;30.60;97.80
38118;DHT22;23928;47.562;7.508;2022-08-01T14:56:54;30.20;96.90
38118;DHT22;23928;47.562;7.508;2022-08-01T14:59:20;30.10;97.00
38118;DHT22;23928;47.562;7.508;2022-08-01T15:01:46;30.00;97.70
38118;DHT22;23928;47.562;7.508;2022-08-01T15:04:11;30.00;97.40
38118;DHT22;23928;47.562;7.508;2022-08-01T15:06:38;29.90;97.70
38118;DHT22;23928;47.562;7.508;2022-08-01T15:09:03;29.60;97.10
38118;DHT22;23928;47.562;7.508;2022-08-01T15:11:29;29.60;97.40
38118;DHT22;23928;47.562;7.508;2022-08-01T15:13:55;29.80;97.90
38118;DHT22;23928;47.562;7.508;2022-08-01T15:16:39;30.20;97.70
38118;DHT22;23928;47.562;7.508;2022-08-01T15:19:05;30.20;98.40
38118;DHT22;23928;47.562;7.508;2022-08-01T15:21:31;30.20;97.50
38118;DHT22;23928;47.562;7.508;2022-08-01T15:23:56;29.60;97.50
38118;DHT22;23928;47.562;7.508;2022-08-01T15:26:22;29.60;96.70
38118;DHT22;23928;47.562;7.508;2022-08-01T15:28:47;29.60;97.70
38118;DHT22;23928;47.562;7.508;2022-08-01T15:31:13;29.20;97.80
38118;DHT22;23928;47.562;7.508;2022-08-01T15:33:39;29.30;97.40
38118;DHT22;23928;47.562;7.508;2022-08-01T15:36:04;29.50;97.60
38118;DHT22;23928;47.562;7.508;2022-08-01T15:38:30;29.80;96.90
38118;DHT22;23928;47.562;7.508;2022-08-01T15:40:56;30.20;98.20
38118;DHT22;23928;47.562;7.508;2022-08-01T15:43:22;30.70;96.90
38118;DHT22;23928;47.562;7.508;2022-08-01T15:45:47;30.20;96.70
38118;DHT22;23928;47.562;7.508;2022-08-01T15:48:14;30.40;97.00
38118;DHT22;23928;47.562;7.508;2022-08-01T15:50:39;29.70;97.50
38118;DHT22;23928;47.562;7.508;2022-08-01T15:53:05;29.70;96.70
38118;DHT22;23928;47.562;7.508;2022-08-01T15:55:34;29.90;97.20
38118;DHT22;23928;47.562;7.508;2022-08-01T15:57:59;29.40;97.10
38118;DHT22;23928;47.562;7.508;2022-08-01T16:00:25;29.20;98.10
38118;DHT22;23928;47.562;7.508;2022-08-01T16:02:51;29.20;98.10
38118;DHT22;23928;47.562;7.508;2022-08-01T16:05:16;29.00;97.80
38118;DHT22;23928;47.562;7.508;2022-08-01T16:07:42;28.90;97.80
38118;DHT22;23928;47.562;7.508;2022-08-01T16:10:08;28.70;97.40
38118;DHT22;23928;47.562;7.508;2022-08-01T16:12:34;28.70;97.70
38118;DHT22;23928;47.562;7.508;2022-08-01T16:15:00;28.70;97.70
38118;DHT22;23928;47.562;7.508;2022-08-01T16:17:25;28.50;97.40
38118;DHT22;23928;47.562;7.508;2022-08-01T16:19:51;28.40;97.60
38118;DHT22;23928;47.562;7.508;2022-08-01T16:22:17;28.40;97.60
38118;DHT22;23928;47.562;7.508;2022-08-01T16:24:42;28.40;98.00
38118;DHT22;23928;47.562;7.508;2022-08-01T16:27:08;28.40;97.70
38118;DHT22;23928;47.562;7.508;2022-08-01T16:29:33;28.30;97.50
38118;DHT22;23928;47.562;7.508;2022-08-01T16:31:59;28.20;97.90
38118;DHT22;23928;47.562;7.508;2022-08-01T16:34:26;28.20;98.50
38118;DHT22;23928;47.562;7.508;2022-08-01T16:36:52;28.10;98.40
38118;DHT22;23928;47.562;7.508;2022-08-01T16:39:20;28.00;98.50
38118;DHT22;23928;47.562;7.508;2022-08-01T16:41:46;28.10;98.30
38118;DHT22;23928;47.562;7.508;2022-08-01T16:44:12;28.00;98.40
38118;DHT22;23928;47.562;7.508;2022-08-01T16:46:37;28.00;98.40
38118;DHT22;23928;47.562;7.508;2022-08-01T16:49:03;27.90;97.90
38118;DHT22;23928;47.562;7.508;2022-08-01T16:51:31;27.80;98.00
38118;DHT22;23928;47.562;7.508;2022-08-01T16:53:56;27.80;97.90
38118;DHT22;23928;47.562;7.508;2022-08-01T16:56:22;27.80;98.80
38118;DHT22;23928;47.562;7.508;2022-08-01T16:58:48;27.70;99.10
38118;DHT22;23928;47.562;7.508;2022-08-01T17:01:14;27.60;98.70
38118;DHT22;23928;47.562;7.508;2022-08-01T17:03:39;27.60;98.60
38118;DHT22;23928;47.562;7.508;2022-08-01T17:06:05;27.50;98.60
38118;DHT22;23928;47.562;7.508;2022-08-01T17:08:31;27.40;99.20
38118;DHT22;23928;47.562;7.508;2022-08-01T17:10:56;27.40;98.80